METAR KSCH 201459Z AUTO 00000KT 10SM CLR 02/M05 A2980 A02